createdAt,value
2023-01-25T00:01:10.677Z,27.90
2023-01-25T00:03:45.875Z,24.80
2023-01-25T00:06:16.754Z,23.50
2023-01-25T00:08:47.566Z,26.10
2023-01-25T00:11:19.988Z,22.70
2023-01-25T00:13:55.690Z,26.77
2023-01-25T00:16:27.215Z,23.55
2023-01-25T00:19:00.615Z,24.83
2023-01-25T00:21:31.324Z,21.10
2023-01-25T00:24:02.194Z,22.25
2023-01-25T00:26:33.611Z,22.45
2023-01-25T00:29:05.040Z,21.85
2023-01-25T00:31:43.748Z,23.60
2023-01-25T00:34:48.773Z,24.52
2023-01-25T00:37:27.615Z,23.00
2023-01-25T00:39:58.532Z,23.85
2023-01-25T00:42:29.412Z,25.15
2023-01-25T00:45:00.317Z,22.48
2023-01-25T00:47:32.080Z,23.90
2023-01-25T00:50:05.454Z,22.92
2023-01-25T00:52:36.339Z,22.92
2023-01-25T00:55:08.321Z,26.23
2023-01-25T00:57:39.207Z,24.35
2023-01-25T01:00:12.003Z,26.38
2023-01-25T01:02:42.922Z,25.05
2023-01-25T01:05:18.322Z,25.48
2023-01-25T01:07:52.156Z,25.25
2023-01-25T01:10:22.885Z,24.63
2023-01-25T01:12:54.326Z,26.08
2023-01-25T01:15:25.667Z,25.42
2023-01-25T01:17:56.396Z,26.48
2023-01-25T01:20:29.697Z,26.63
2023-01-25T01:23:00.486Z,25.63
2023-01-25T01:25:31.219Z,26.15
2023-01-25T01:28:04.291Z,23.00
2023-01-25T01:30:37.169Z,26.25
2023-01-25T01:33:08.405Z,25.55
2023-01-25T01:35:41.759Z,25.63
2023-01-25T01:38:12.453Z,26.35
2023-01-25T01:40:47.611Z,30.23
2023-01-25T01:43:20.918Z,30.25
2023-01-25T01:46:00.154Z,25.60
2023-01-25T01:48:43.024Z,25.90
2023-01-25T01:51:20.738Z,28.23
2023-01-25T01:53:55.242Z,27.95
2023-01-25T01:56:33.002Z,27.42
2023-01-25T01:59:05.914Z,25.30
2023-01-25T02:01:39.332Z,28.58
2023-01-25T02:04:11.883Z,26.83
2023-01-25T02:06:49.837Z,27.15
2023-01-25T02:09:24.100Z,28.70
2023-01-25T02:11:59.678Z,25.58
2023-01-25T02:14:31.908Z,29.65
2023-01-25T02:17:06.766Z,27.58
2023-01-25T02:19:53.255Z,26.60
2023-01-25T02:22:33.555Z,28.50
2023-01-25T02:25:10.750Z,25.88
2023-01-25T02:27:47.748Z,26.23
2023-01-25T02:30:18.964Z,28.15
2023-01-25T02:32:52.967Z,25.35
2023-01-25T02:35:25.322Z,24.25
2023-01-25T02:37:56.060Z,29.55
2023-01-25T02:41:06.006Z,27.30
2023-01-25T02:43:40.021Z,26.63
2023-01-25T02:46:18.088Z,28.58
2023-01-25T02:48:48.837Z,26.00
2023-01-25T02:51:19.688Z,28.40
2023-01-25T02:53:50.543Z,26.50
2023-01-25T02:56:22.182Z,27.55
2023-01-25T02:58:56.712Z,26.25
2023-01-25T03:01:27.990Z,28.80
2023-01-25T03:03:58.814Z,28.23
2023-01-25T03:06:32.289Z,27.23
2023-01-25T03:09:04.992Z,30.90
2023-01-25T03:11:35.694Z,30.33
2023-01-25T03:14:09.164Z,28.13
2023-01-25T03:16:42.076Z,27.65
2023-01-25T03:19:13.042Z,29.77
2023-01-25T03:21:45.491Z,29.13
2023-01-25T03:24:18.833Z,25.60
2023-01-25T03:27:02.452Z,26.38
2023-01-25T03:29:38.419Z,27.55
2023-01-25T03:32:09.452Z,26.27
2023-01-25T03:34:40.338Z,28.20
2023-01-25T03:37:11.105Z,27.98
2023-01-25T03:39:41.974Z,27.40
2023-01-25T03:42:13.449Z,27.90
2023-01-25T03:44:46.758Z,28.83
2023-01-25T03:47:17.739Z,31.08
2023-01-25T03:49:48.591Z,28.70
2023-01-25T03:52:19.560Z,25.75
2023-01-25T03:54:50.273Z,28.27
2023-01-25T03:57:24.429Z,26.95
2023-01-25T03:59:57.733Z,31.85
2023-01-25T04:02:28.523Z,30.25
2023-01-25T04:04:59.428Z,29.90
2023-01-25T04:07:30.096Z,30.77
2023-01-25T04:10:00.855Z,31.73
2023-01-25T04:12:31.710Z,30.00
2023-01-25T04:15:05.320Z,29.67
2023-01-25T04:17:38.364Z,30.23
2023-01-25T04:20:10.782Z,31.52
2023-01-25T04:22:41.479Z,30.98
2023-01-25T04:25:13.023Z,32.10
2023-01-25T04:27:45.237Z,32.40
2023-01-25T04:30:19.374Z,31.58
2023-01-25T04:32:50.294Z,31.48
2023-01-25T04:35:21.737Z,29.17
2023-01-25T04:38:00.498Z,29.02
2023-01-25T04:40:31.317Z,27.50
2023-01-25T04:43:02.102Z,29.27
2023-01-25T04:45:36.408Z,29.50
2023-01-25T04:48:09.934Z,29.70
2023-01-25T04:50:41.635Z,29.13
2023-01-25T04:53:13.905Z,28.92
2023-01-25T04:55:48.857Z,29.48
2023-01-25T04:58:20.004Z,30.30
2023-01-25T05:00:53.355Z,31.67
2023-01-25T05:03:25.676Z,31.45
2023-01-25T05:05:57.629Z,31.42
2023-01-25T05:08:28.765Z,28.25
2023-01-25T05:10:59.507Z,29.38
2023-01-25T05:13:30.264Z,29.45
2023-01-25T05:16:08.431Z,30.45
2023-01-25T05:18:48.527Z,28.63
2023-01-25T05:21:32.267Z,27.05
2023-01-25T05:24:03.058Z,27.85
2023-01-25T05:26:46.605Z,25.13
2023-01-25T05:29:19.040Z,28.88
2023-01-25T05:31:52.395Z,27.35
2023-01-25T05:34:23.207Z,28.73
2023-01-25T05:36:53.980Z,27.15
2023-01-25T05:39:24.750Z,27.23
2023-01-25T05:41:55.820Z,27.95
2023-01-25T05:44:27.395Z,25.27
2023-01-25T05:47:04.322Z,28.05
2023-01-25T05:49:35.035Z,23.52
2023-01-25T05:52:05.837Z,24.55
2023-01-25T05:54:36.685Z,23.58
2023-01-25T05:57:13.201Z,26.05
2023-01-25T05:59:44.109Z,23.73
2023-01-25T06:02:20.435Z,22.80
2023-01-25T06:04:52.357Z,25.95
2023-01-25T06:07:24.731Z,26.23
2023-01-25T06:09:55.565Z,27.83
2023-01-25T06:12:26.275Z,26.77
2023-01-25T06:15:00.280Z,25.27
2023-01-25T06:17:33.813Z,31.23
2023-01-25T06:20:04.583Z,31.80
2023-01-25T06:22:35.348Z,27.15
2023-01-25T06:25:06.496Z,27.58
2023-01-25T06:27:37.564Z,24.70
2023-01-25T06:30:09.664Z,28.10
2023-01-25T06:32:43.111Z,32.25
2023-01-25T06:35:13.831Z,28.25
2023-01-25T06:37:44.815Z,30.75
2023-01-25T06:40:18.489Z,29.48
2023-01-25T06:42:51.544Z,28.85
2023-01-25T06:45:24.841Z,29.70
2023-01-25T06:47:58.207Z,31.20
2023-01-25T06:50:29.173Z,32.42
2023-01-25T06:53:00.145Z,25.10
2023-01-25T06:55:31.689Z,28.00
2023-01-25T06:58:03.510Z,27.25
2023-01-25T07:00:34.361Z,29.52
2023-01-25T07:03:07.871Z,27.67
2023-01-25T07:05:38.632Z,27.50
2023-01-25T07:08:09.399Z,25.80
2023-01-25T07:10:42.980Z,31.30
2023-01-25T07:13:13.703Z,31.20
2023-01-25T07:15:44.523Z,30.90
2023-01-25T07:18:17.979Z,29.83
2023-01-25T07:20:51.682Z,26.83
2023-01-25T07:23:24.672Z,24.02
2023-01-25T07:26:20.378Z,26.67
2023-01-25T07:28:52.210Z,30.95
2023-01-25T07:31:23.746Z,27.50
2023-01-25T07:33:59.397Z,32.75
2023-01-25T07:36:30.188Z,32.15
2023-01-25T07:39:01.552Z,31.13
2023-01-25T07:41:34.796Z,30.00
2023-01-25T07:44:07.661Z,29.52
2023-01-25T07:46:38.600Z,31.13
2023-01-25T07:49:11.992Z,34.38
2023-01-25T07:51:43.077Z,29.08
2023-01-25T07:54:14.831Z,28.48
2023-01-25T07:56:45.604Z,25.92
2023-01-25T07:59:16.929Z,26.90
2023-01-25T08:02:18.939Z,28.98
2023-01-25T08:04:53.664Z,29.42
2023-01-25T08:07:25.007Z,34.35
2023-01-25T08:09:55.817Z,33.03
2023-01-25T08:12:28.014Z,35.03
2023-01-25T08:14:58.819Z,35.88
2023-01-25T08:17:32.757Z,35.95
2023-01-25T08:20:08.231Z,41.28
2023-01-25T08:22:38.950Z,36.78
2023-01-25T08:25:11.532Z,36.75
2023-01-25T08:27:42.524Z,32.40
2023-01-25T08:30:14.915Z,38.38
2023-01-25T08:32:48.209Z,38.63
2023-01-25T08:35:21.844Z,40.03
2023-01-25T08:37:53.766Z,34.80
2023-01-25T08:40:24.833Z,32.42
2023-01-25T08:42:55.734Z,38.10
2023-01-25T08:45:26.449Z,38.33
2023-01-25T08:47:57.631Z,47.30
2023-01-25T08:50:31.078Z,34.72
2023-01-25T08:53:01.848Z,41.13
2023-01-25T08:55:32.604Z,40.63
2023-01-25T08:58:03.344Z,32.88
2023-01-25T09:00:34.117Z,41.90
2023-01-25T09:03:04.870Z,35.00
2023-01-25T09:05:40.694Z,33.20
2023-01-25T09:08:13.178Z,37.00
2023-01-25T09:10:46.863Z,39.33
2023-01-25T09:13:17.572Z,38.08
2023-01-25T09:15:48.709Z,35.88
2023-01-25T09:18:22.233Z,36.95
2023-01-25T09:20:55.665Z,38.72
2023-01-25T09:23:26.948Z,40.85
2023-01-25T09:26:04.267Z,38.85
2023-01-25T09:28:38.363Z,39.75
2023-01-25T09:31:21.684Z,42.63
2023-01-25T09:33:54.833Z,42.42
2023-01-25T09:36:28.625Z,43.25
2023-01-25T09:39:01.473Z,34.40
2023-01-25T09:42:13.929Z,39.70
2023-01-25T09:45:08.203Z,40.35
2023-01-25T09:47:46.896Z,37.50
2023-01-25T09:50:29.687Z,39.30
2023-01-25T09:53:27.172Z,40.33
2023-01-25T09:56:03.941Z,36.45
2023-01-25T09:58:40.871Z,39.42
2023-01-25T10:01:36.741Z,36.50
2023-01-25T10:04:17.961Z,35.35
2023-01-25T10:07:00.075Z,31.38
2023-01-25T10:09:38.816Z,34.38
2023-01-25T10:12:18.685Z,36.33
2023-01-25T10:14:49.550Z,39.10
2023-01-25T10:17:30.110Z,39.35
2023-01-25T10:20:11.921Z,38.97
2023-01-25T10:22:53.967Z,37.10
2023-01-25T10:25:31.202Z,43.03
2023-01-25T10:28:30.238Z,40.53
2023-01-25T10:31:03.885Z,38.97
2023-01-25T10:33:39.353Z,37.95
2023-01-25T10:36:16.463Z,38.05
2023-01-25T10:38:49.139Z,43.28
2023-01-25T10:41:31.139Z,37.05
2023-01-25T10:44:28.906Z,40.72
2023-01-25T10:47:03.409Z,43.45
2023-01-25T10:49:44.250Z,44.00
2023-01-25T10:52:20.780Z,46.20
2023-01-25T10:55:09.450Z,47.85
2023-01-25T10:57:44.897Z,47.58
2023-01-25T11:00:30.568Z,42.92
2023-01-25T11:03:02.564Z,35.58
2023-01-25T11:05:36.107Z,37.83
2023-01-25T11:08:26.371Z,42.33
2023-01-25T11:11:00.924Z,39.00
2023-01-25T11:13:35.435Z,38.45
2023-01-25T11:16:27.860Z,44.97
2023-01-25T11:19:00.323Z,39.40
2023-01-25T11:21:35.885Z,39.15
2023-01-25T11:24:20.070Z,41.35
2023-01-25T11:26:51.032Z,43.53
2023-01-25T11:29:25.476Z,43.70
2023-01-25T11:31:59.664Z,40.22
2023-01-25T11:34:31.984Z,40.58
2023-01-25T11:37:21.663Z,36.20
2023-01-25T11:40:03.539Z,41.00
2023-01-25T11:42:45.062Z,39.15
2023-01-25T11:46:01.806Z,42.47
2023-01-25T11:49:03.175Z,41.63
2023-01-25T11:51:40.999Z,40.25
2023-01-25T11:54:30.445Z,40.30
2023-01-25T11:57:03.334Z,44.45
2023-01-25T11:59:58.615Z,43.15
2023-01-25T12:02:49.834Z,42.13
2023-01-25T12:05:37.112Z,44.40
2023-01-25T12:08:32.903Z,36.15
2023-01-25T12:11:12.463Z,35.60
2023-01-25T12:13:52.243Z,34.60
2023-01-25T12:16:36.810Z,32.13
2023-01-25T12:19:23.857Z,37.33
2023-01-25T12:22:22.545Z,40.03
2023-01-25T12:25:02.140Z,40.33
2023-01-25T12:27:45.486Z,39.45
2023-01-25T12:30:21.844Z,39.03
2023-01-25T12:33:02.422Z,40.42
2023-01-25T12:35:49.048Z,32.38
2023-01-25T12:38:28.593Z,33.33
2023-01-25T12:41:08.314Z,37.38
2023-01-25T12:43:44.698Z,33.78
2023-01-25T12:46:20.730Z,34.67
2023-01-25T12:48:55.178Z,34.17
2023-01-25T12:51:32.528Z,36.53
2023-01-25T12:54:15.670Z,32.55
2023-01-25T12:56:58.353Z,32.28
2023-01-25T12:59:37.054Z,32.35
2023-01-25T13:02:25.259Z,33.28
2023-01-25T13:05:05.159Z,27.70
2023-01-25T13:07:46.888Z,31.45
2023-01-25T13:10:27.155Z,27.63
2023-01-25T13:13:03.267Z,30.35
2023-01-25T13:15:41.471Z,33.47
2023-01-25T13:18:40.333Z,33.15
2023-01-25T13:21:28.034Z,33.72
2023-01-25T13:24:15.289Z,31.30
2023-01-25T13:27:00.067Z,34.05
2023-01-25T13:30:03.122Z,28.40
2023-01-25T13:33:06.369Z,35.92
2023-01-25T13:35:40.030Z,32.92
2023-01-25T13:38:32.235Z,31.23
2023-01-25T13:41:15.421Z,36.05
2023-01-25T13:44:20.919Z,29.15
2023-01-25T13:46:54.333Z,29.58
2023-01-25T13:49:35.596Z,27.08
2023-01-25T13:52:07.254Z,28.10
2023-01-25T13:54:45.921Z,31.52
2023-01-25T13:57:22.159Z,33.97
2023-01-25T14:00:10.201Z,28.92
2023-01-25T14:02:43.171Z,33.33
2023-01-25T14:05:22.091Z,30.30
2023-01-25T14:07:56.269Z,31.35
2023-01-25T14:10:30.161Z,30.27
2023-01-25T14:13:04.085Z,31.35
2023-01-25T14:15:37.465Z,36.58
2023-01-25T14:18:17.583Z,32.80
2023-01-25T14:20:49.772Z,31.90
2023-01-25T14:23:25.524Z,33.70
2023-01-25T14:25:59.388Z,33.83
2023-01-25T14:28:32.481Z,37.22
2023-01-25T14:31:06.166Z,38.15
2023-01-25T14:33:44.502Z,35.25
2023-01-25T14:36:25.258Z,39.92
2023-01-25T14:38:57.363Z,35.63
2023-01-25T14:41:32.491Z,38.63
2023-01-25T14:44:10.691Z,37.97
2023-01-25T14:46:44.785Z,38.53
2023-01-25T14:49:28.094Z,40.70
2023-01-25T14:52:05.570Z,39.92
2023-01-25T14:54:40.400Z,37.65
2023-01-25T14:57:34.266Z,39.97
2023-01-25T15:00:09.393Z,39.92
2023-01-25T15:02:49.680Z,39.78
2023-01-25T15:05:24.157Z,42.35
2023-01-25T15:07:56.466Z,43.28
2023-01-25T15:10:29.720Z,37.10
2023-01-25T15:13:18.398Z,51.45
2023-01-25T15:15:54.853Z,48.40
2023-01-25T15:18:51.169Z,47.58
2023-01-25T15:21:23.341Z,47.53
2023-01-25T15:23:55.181Z,49.38
2023-01-25T15:26:27.182Z,51.25
2023-01-25T15:29:02.588Z,55.13
2023-01-25T15:31:35.971Z,48.33
2023-01-25T15:34:18.787Z,47.67
2023-01-25T15:36:50.172Z,47.08
2023-01-25T15:39:22.321Z,43.40
2023-01-25T15:41:53.233Z,47.05
2023-01-25T15:44:23.988Z,46.35
2023-01-25T15:46:55.250Z,46.22
2023-01-25T15:49:31.608Z,50.17
2023-01-25T15:52:02.562Z,50.67
2023-01-25T15:54:33.249Z,53.50
2023-01-25T15:57:04.095Z,52.55
2023-01-25T15:59:37.552Z,51.92
2023-01-25T16:02:14.296Z,51.13
2023-01-25T16:04:47.999Z,53.92
2023-01-25T16:07:25.440Z,56.00
2023-01-25T16:09:56.261Z,50.63
2023-01-25T16:12:28.618Z,51.75
2023-01-25T16:14:59.326Z,49.83
2023-01-25T16:17:30.605Z,49.70
2023-01-25T16:20:04.066Z,57.65
2023-01-25T16:22:34.796Z,58.33
2023-01-25T16:25:05.571Z,53.30
2023-01-25T16:27:37.161Z,59.88
2023-01-25T16:30:10.034Z,61.38
2023-01-25T16:32:41.176Z,61.05
2023-01-25T16:35:14.715Z,57.20
2023-01-25T16:37:45.487Z,50.83
2023-01-25T16:40:25.520Z,52.90
2023-01-25T16:42:59.366Z,56.47
2023-01-25T16:45:30.674Z,60.50
2023-01-25T16:48:01.961Z,60.22
2023-01-25T16:50:35.456Z,62.22
2023-01-25T16:53:06.230Z,52.40
2023-01-25T16:55:37.113Z,54.90
2023-01-25T16:58:20.055Z,54.15
2023-01-25T17:00:51.049Z,55.25
2023-01-25T17:03:21.764Z,57.33
2023-01-25T17:05:55.467Z,58.42
2023-01-25T17:08:27.847Z,59.35
2023-01-25T17:10:58.551Z,59.25
2023-01-25T17:13:29.356Z,55.88
2023-01-25T17:16:00.932Z,59.90
2023-01-25T17:18:32.013Z,56.28
2023-01-25T17:21:07.925Z,57.70
2023-01-25T17:23:40.567Z,51.28
2023-01-25T17:26:14.222Z,52.35
2023-01-25T17:28:46.262Z,54.60
2023-01-25T17:31:21.445Z,58.47
2023-01-25T17:33:53.107Z,56.30
2023-01-25T17:36:34.227Z,54.33
2023-01-25T17:39:09.115Z,53.60
2023-01-25T17:41:39.883Z,56.65
2023-01-25T17:44:10.723Z,56.78
2023-01-25T17:46:41.631Z,52.90
2023-01-25T17:49:16.674Z,58.17
2023-01-25T17:51:50.075Z,57.95
2023-01-25T17:54:20.825Z,53.72
2023-01-25T17:56:52.138Z,56.88
2023-01-25T17:59:22.920Z,47.75
2023-01-25T18:01:56.024Z,55.10
2023-01-25T18:04:26.982Z,53.15
2023-01-25T18:07:03.208Z,54.22
2023-01-25T18:09:35.831Z,58.08
2023-01-25T18:12:06.937Z,54.95
2023-01-25T18:14:37.807Z,59.28
2023-01-25T18:17:08.532Z,51.67
2023-01-25T18:19:39.807Z,57.30
2023-01-25T18:22:13.649Z,66.20
2023-01-25T18:24:45.925Z,52.78
2023-01-25T18:27:22.721Z,53.47
2023-01-25T18:30:01.979Z,54.75
2023-01-25T18:32:33.660Z,63.78
2023-01-25T18:35:04.771Z,61.50
2023-01-25T18:37:44.320Z,56.42
2023-01-25T18:40:18.795Z,56.70
2023-01-25T18:42:50.251Z,63.05
2023-01-25T18:45:22.505Z,56.00
2023-01-25T18:47:53.274Z,57.17
2023-01-25T18:50:24.036Z,60.38
2023-01-25T18:52:57.404Z,59.90
2023-01-25T18:55:28.339Z,59.25
2023-01-25T18:58:04.082Z,57.13
2023-01-25T19:00:35.842Z,56.97
2023-01-25T19:03:06.779Z,59.08
2023-01-25T19:05:38.079Z,57.17
2023-01-25T19:08:11.474Z,60.72
2023-01-25T19:10:42.173Z,62.03
2023-01-25T19:13:12.918Z,58.35
2023-01-25T19:15:43.977Z,62.63
2023-01-25T19:18:14.644Z,66.72
2023-01-25T19:20:47.102Z,61.50
2023-01-25T19:23:20.450Z,62.90
2023-01-25T19:25:56.198Z,62.95
2023-01-25T19:28:27.020Z,66.30
2023-01-25T19:30:58.252Z,65.53
2023-01-25T19:33:29.506Z,63.95
2023-01-25T19:36:04.659Z,65.00
2023-01-25T19:38:41.875Z,65.43
2023-01-25T19:41:17.193Z,68.28
2023-01-25T19:43:48.619Z,66.63
2023-01-25T19:46:21.755Z,65.55
2023-01-25T19:48:54.702Z,53.22
2023-01-25T19:51:28.245Z,55.08
2023-01-25T19:54:03.361Z,56.92
2023-01-25T19:56:39.594Z,59.33
2023-01-25T19:59:13.377Z,52.75
2023-01-25T20:01:45.255Z,67.32
2023-01-25T20:04:19.713Z,65.35
2023-01-25T20:06:51.397Z,63.42
2023-01-25T20:09:28.661Z,61.97
2023-01-25T20:12:00.736Z,68.55
2023-01-25T20:14:31.643Z,63.85
2023-01-25T20:17:06.091Z,64.47
2023-01-25T20:19:38.711Z,65.53
2023-01-25T20:22:12.597Z,59.70
2023-01-25T20:24:45.885Z,60.38
2023-01-25T20:27:16.574Z,54.00
2023-01-25T20:29:49.163Z,55.50
2023-01-25T20:32:32.101Z,53.60
2023-01-25T20:35:06.294Z,48.75
2023-01-25T20:37:40.206Z,47.13
2023-01-25T20:40:22.659Z,47.17
2023-01-25T20:42:55.713Z,41.47
2023-01-25T20:45:26.727Z,48.70
2023-01-25T20:47:57.642Z,46.72
2023-01-25T20:50:28.378Z,46.95
2023-01-25T20:52:59.104Z,47.47
2023-01-25T20:55:32.451Z,48.47
2023-01-25T20:58:06.083Z,49.83
2023-01-25T21:00:36.911Z,53.55
2023-01-25T21:03:07.634Z,52.90
2023-01-25T21:05:38.406Z,54.00
2023-01-25T21:08:12.359Z,59.65
2023-01-25T21:10:50.269Z,57.40
2023-01-25T21:13:21.790Z,54.30
2023-01-25T21:16:06.504Z,49.38
2023-01-25T21:18:38.789Z,50.42
2023-01-25T21:21:11.774Z,57.97
2023-01-25T21:23:44.836Z,56.50
2023-01-25T21:26:20.202Z,56.58
2023-01-25T21:28:51.761Z,52.92
2023-01-25T21:31:23.845Z,53.30
2023-01-25T21:33:55.289Z,53.47
2023-01-25T21:36:29.744Z,51.35
2023-01-25T21:39:00.536Z,53.83
2023-01-25T21:41:35.632Z,52.08
2023-01-25T21:44:19.771Z,57.08
2023-01-25T21:49:56.885Z,60.05
2023-01-25T21:52:30.628Z,53.17
2023-01-25T21:55:01.508Z,58.78
2023-01-25T21:57:35.621Z,64.13
2023-01-25T22:00:07.591Z,61.90
2023-01-25T22:02:38.849Z,58.88
2023-01-25T22:05:10.801Z,57.22
2023-01-25T22:07:45.564Z,57.88
2023-01-25T22:10:16.602Z,64.03
2023-01-25T22:12:52.339Z,65.32
2023-01-25T22:15:23.506Z,63.40
2023-01-25T22:17:54.458Z,60.28
2023-01-25T22:20:25.421Z,59.75
2023-01-25T22:22:56.144Z,60.63
2023-01-25T22:25:26.832Z,64.85
2023-01-25T22:28:03.076Z,64.45
2023-01-25T22:30:33.876Z,64.53
2023-01-25T22:33:05.404Z,63.40
2023-01-25T22:35:36.130Z,62.33
2023-01-25T22:38:09.902Z,65.28
2023-01-25T22:40:42.844Z,67.72
2023-01-25T22:43:16.129Z,61.95
2023-01-25T22:45:54.528Z,60.28
2023-01-25T22:48:25.525Z,63.55
2023-01-25T22:50:56.314Z,71.88
2023-01-25T22:53:26.969Z,61.92
2023-01-25T22:56:03.022Z,65.22
2023-01-25T22:58:37.569Z,71.07
2023-01-25T23:01:12.107Z,70.57
2023-01-25T23:03:43.099Z,68.18
2023-01-25T23:06:15.897Z,63.10
2023-01-25T23:08:47.653Z,64.97
2023-01-25T23:11:20.722Z,59.40
2023-01-25T23:14:07.939Z,59.08
2023-01-25T23:16:44.984Z,68.38
2023-01-25T23:19:14.515Z,61.97
2023-01-25T23:21:45.375Z,62.25
2023-01-25T23:24:16.306Z,62.13
2023-01-25T23:26:47.098Z,58.90
2023-01-25T23:29:20.391Z,62.47
2023-01-25T23:31:51.097Z,66.78
2023-01-25T23:34:21.885Z,60.63
2023-01-25T23:36:52.641Z,61.53
2023-01-25T23:39:23.718Z,60.85
2023-01-25T23:41:54.538Z,54.78
2023-01-25T23:44:27.976Z,56.17
2023-01-25T23:47:01.555Z,63.28
2023-01-25T23:49:32.364Z,65.35
2023-01-25T23:52:03.566Z,66.30
2023-01-25T23:54:34.271Z,66.38
2023-01-25T23:57:05.092Z,72.20
2023-01-25T23:59:39.106Z,70.28
